createdAt,value
2022-10-23T00:01:17.083Z,46.11
2022-10-23T00:03:46.489Z,46.00
2022-10-23T00:06:15.947Z,46.37
2022-10-23T00:08:44.447Z,46.57
2022-10-23T00:11:18.278Z,46.67
2022-10-23T00:13:46.845Z,46.49
2022-10-23T00:16:14.984Z,46.43
2022-10-23T00:18:43.524Z,46.66
2022-10-23T00:21:13.485Z,46.63
2022-10-23T00:23:41.911Z,46.88
2022-10-23T00:26:11.369Z,46.83
2022-10-23T00:28:41.028Z,46.76
2022-10-23T00:31:09.071Z,47.00
2022-10-23T00:33:37.867Z,46.54
2022-10-23T00:36:07.493Z,46.77
2022-10-23T00:38:39.266Z,46.59
2022-10-23T00:41:07.908Z,46.60
2022-10-23T00:43:37.309Z,46.69
2022-10-23T00:46:06.845Z,47.00
2022-10-23T00:48:35.278Z,46.91
2022-10-23T00:51:03.382Z,47.25
2022-10-23T00:53:31.756Z,47.20
2022-10-23T00:56:00.269Z,47.13
2022-10-23T00:58:28.394Z,47.25
2022-10-23T01:00:58.248Z,47.45
2022-10-23T01:03:30.934Z,47.43
2022-10-23T01:06:10.995Z,47.41
2022-10-23T01:08:48.511Z,47.29
2022-10-23T01:11:21.864Z,46.87
2022-10-23T01:16:42.868Z,46.12
2022-10-23T01:19:21.707Z,46.08
2022-10-23T01:21:56.436Z,45.60
2022-10-23T01:24:38.475Z,44.81
2022-10-23T01:27:23.664Z,44.90
2022-10-23T01:30:00.488Z,44.46
2022-10-23T01:32:33.430Z,44.48
2022-10-23T01:35:06.209Z,44.02
2022-10-23T01:37:40.955Z,44.08
2022-10-23T01:40:16.741Z,44.22
2022-10-23T01:42:53.777Z,44.14
2022-10-23T01:45:28.958Z,44.16
2022-10-23T01:47:58.429Z,44.12
2022-10-23T01:50:28.162Z,44.42
2022-10-23T01:52:56.283Z,44.29
2022-10-23T01:55:25.957Z,44.01
2022-10-23T01:57:56.400Z,43.95
2022-10-23T02:00:24.475Z,43.78
2022-10-23T02:02:53.893Z,43.75
2022-10-23T02:05:25.251Z,44.15
2022-10-23T02:07:54.165Z,43.66
2022-10-23T02:10:22.946Z,43.67
2022-10-23T02:12:59.605Z,43.42
2022-10-23T02:15:33.067Z,43.78
2022-10-23T02:18:09.748Z,43.74
2022-10-23T02:20:41.748Z,43.88
2022-10-23T02:23:20.444Z,43.84
2022-10-23T02:25:55.060Z,44.22
2022-10-23T02:28:29.093Z,44.47
2022-10-23T02:31:00.428Z,44.30
2022-10-23T02:33:30.450Z,44.12
2022-10-23T02:35:58.762Z,44.26
2022-10-23T02:38:40.612Z,44.15
2022-10-23T02:41:23.589Z,44.12
2022-10-23T02:44:04.195Z,44.41
2022-10-23T02:46:42.660Z,44.98
2022-10-23T02:49:16.560Z,45.25
2022-10-23T02:51:55.893Z,45.42
2022-10-23T02:54:38.102Z,45.71
2022-10-23T02:57:17.004Z,45.69
2022-10-23T02:59:51.320Z,45.67
2022-10-23T03:02:25.799Z,45.68
2022-10-23T03:04:57.333Z,46.01
2022-10-23T03:07:27.896Z,45.92
2022-10-23T03:09:56.010Z,45.83
2022-10-23T03:12:24.075Z,45.74
2022-10-23T03:14:53.816Z,45.88
2022-10-23T03:17:22.076Z,45.82
2022-10-23T03:19:50.171Z,45.85
2022-10-23T03:22:18.634Z,45.55
2022-10-23T03:24:46.855Z,45.53
2022-10-23T03:27:15.165Z,44.88
2022-10-23T03:29:43.410Z,44.42
2022-10-23T03:32:12.866Z,43.97
2022-10-23T03:34:40.945Z,43.77
2022-10-23T03:37:09.179Z,43.52
2022-10-23T03:39:37.294Z,43.62
2022-10-23T03:42:05.675Z,43.51
2022-10-23T03:44:34.253Z,43.64
2022-10-23T03:47:02.365Z,43.82
2022-10-23T03:49:31.970Z,44.23
2022-10-23T03:52:00.052Z,44.33
2022-10-23T03:54:29.832Z,44.30
2022-10-23T03:56:58.204Z,44.22
2022-10-23T03:59:26.444Z,44.26
2022-10-23T04:01:54.636Z,44.18
2022-10-23T04:04:22.939Z,44.34
2022-10-23T04:06:52.501Z,44.46
2022-10-23T04:09:20.743Z,44.53
2022-10-23T04:11:48.858Z,44.43
2022-10-23T04:14:16.892Z,44.38
2022-10-23T04:16:44.996Z,44.74
2022-10-23T04:19:13.103Z,44.82
2022-10-23T04:21:41.252Z,44.78
2022-10-23T04:24:10.891Z,44.82
2022-10-23T04:26:39.068Z,44.63
2022-10-23T04:29:07.148Z,44.21
2022-10-23T04:31:35.271Z,43.94
2022-10-23T04:34:03.421Z,43.82
2022-10-23T04:36:31.738Z,43.58
2022-10-23T04:38:59.835Z,43.73
2022-10-23T04:41:29.370Z,43.99
2022-10-23T04:43:57.438Z,44.34
2022-10-23T04:46:25.637Z,44.73
2022-10-23T04:48:53.713Z,45.10
2022-10-23T04:51:21.793Z,46.04
2022-10-23T04:53:49.924Z,47.52
2022-10-23T04:56:18.442Z,47.75
2022-10-23T04:58:47.951Z,47.86
2022-10-23T05:01:16.038Z,47.90
2022-10-23T05:03:44.301Z,47.39
2022-10-23T05:06:12.581Z,46.78
2022-10-23T05:08:40.691Z,46.22
2022-10-23T05:11:08.781Z,45.85
2022-10-23T05:13:37.124Z,45.38
2022-10-23T05:16:07.252Z,45.06
2022-10-23T05:18:38.804Z,44.80
2022-10-23T05:21:11.898Z,45.15
2022-10-23T05:23:42.997Z,45.18
2022-10-23T05:26:11.137Z,45.20
2022-10-23T05:28:39.240Z,44.91
2022-10-23T05:31:09.740Z,44.42
2022-10-23T05:33:39.219Z,44.29
2022-10-23T05:36:08.540Z,43.85
2022-10-23T05:38:37.326Z,43.61
2022-10-23T05:41:05.817Z,43.83
2022-10-23T05:43:33.924Z,43.66
2022-10-23T05:46:05.879Z,43.58
2022-10-23T05:48:35.865Z,43.28
2022-10-23T05:51:05.562Z,43.18
2022-10-23T05:53:36.128Z,43.24
2022-10-23T05:56:07.659Z,43.45
2022-10-23T05:58:36.061Z,43.50
2022-10-23T06:01:07.350Z,43.92
2022-10-23T06:03:37.877Z,44.41
2022-10-23T06:06:06.717Z,44.56
2022-10-23T06:08:35.752Z,44.99
2022-10-23T06:11:08.778Z,45.18
2022-10-23T06:13:37.158Z,45.20
2022-10-23T06:16:11.780Z,45.73
2022-10-23T06:18:41.392Z,46.10
2022-10-23T06:21:09.775Z,46.96
2022-10-23T06:23:39.908Z,47.39
2022-10-23T06:26:11.317Z,47.73
2022-10-23T06:28:40.318Z,48.13
2022-10-23T06:31:09.902Z,48.48
2022-10-23T06:33:38.309Z,48.21
2022-10-23T06:36:10.665Z,48.69
2022-10-23T06:38:40.625Z,48.92
2022-10-23T06:41:13.839Z,49.30
2022-10-23T06:43:42.035Z,49.64
2022-10-23T06:46:10.951Z,50.12
2022-10-23T06:48:39.268Z,50.02
2022-10-23T06:51:10.831Z,50.05
2022-10-23T06:53:39.255Z,49.60
2022-10-23T06:56:09.724Z,49.40
2022-10-23T06:58:41.048Z,49.20
2022-10-23T07:01:13.000Z,49.22
2022-10-23T07:03:41.598Z,48.89
2022-10-23T07:06:12.159Z,48.53
2022-10-23T07:08:40.732Z,48.54
2022-10-23T07:11:11.355Z,48.95
2022-10-23T07:13:40.636Z,49.06
2022-10-23T07:16:17.311Z,48.86
2022-10-23T07:18:45.718Z,48.41
2022-10-23T07:21:15.659Z,48.65
2022-10-23T07:23:43.897Z,48.73
2022-10-23T07:26:14.511Z,48.70
2022-10-23T07:28:44.302Z,49.00
2022-10-23T07:31:12.768Z,49.27
2022-10-23T07:33:41.062Z,49.04
2022-10-23T07:36:10.407Z,49.04
2022-10-23T07:38:40.434Z,49.07
2022-10-23T07:41:11.622Z,48.69
2022-10-23T07:43:40.978Z,48.32
2022-10-23T07:46:10.029Z,47.92
2022-10-23T07:48:38.873Z,47.89
2022-10-23T07:51:10.746Z,48.63
2022-10-23T07:53:41.327Z,48.70
2022-10-23T07:56:15.463Z,48.81
2022-10-23T07:58:43.574Z,48.55
2022-10-23T08:01:20.901Z,48.45
2022-10-23T08:03:49.068Z,48.18
2022-10-23T08:06:17.403Z,47.76
2022-10-23T08:08:46.901Z,47.45
2022-10-23T08:11:16.591Z,46.68
2022-10-23T08:13:45.094Z,46.26
2022-10-23T08:16:13.353Z,45.70
2022-10-23T08:18:42.935Z,45.41
2022-10-23T08:21:11.655Z,45.28
2022-10-23T08:23:39.992Z,44.38
2022-10-23T08:26:11.089Z,44.94
2022-10-23T08:28:39.512Z,45.03
2022-10-23T08:31:10.368Z,44.84
2022-10-23T08:33:39.003Z,45.12
2022-10-23T08:36:16.473Z,44.71
2022-10-23T08:38:44.842Z,44.45
2022-10-23T08:41:25.056Z,44.54
2022-10-23T08:43:58.112Z,44.24
2022-10-23T08:46:31.457Z,44.06
2022-10-23T08:49:22.289Z,44.10
2022-10-23T08:51:53.520Z,43.50
2022-10-23T08:54:26.769Z,43.75
2022-10-23T08:57:01.813Z,43.27
2022-10-23T08:59:38.185Z,43.55
2022-10-23T09:02:14.712Z,43.69
2022-10-23T09:04:44.457Z,43.04
2022-10-23T09:07:23.481Z,43.51
2022-10-23T09:10:02.985Z,43.58
2022-10-23T09:12:33.054Z,43.24
2022-10-23T09:15:14.084Z,43.15
2022-10-23T09:17:44.605Z,43.27
2022-10-23T09:20:21.152Z,43.31
2022-10-23T09:22:51.076Z,43.52
2022-10-23T09:25:23.292Z,43.28
2022-10-23T09:27:56.268Z,43.01
2022-10-23T09:30:34.517Z,43.31
2022-10-23T09:33:14.725Z,43.57
2022-10-23T09:35:54.269Z,43.07
2022-10-23T09:38:30.289Z,42.82
2022-10-23T09:41:01.547Z,42.96
2022-10-23T09:43:31.096Z,42.52
2022-10-23T09:46:01.392Z,42.95
2022-10-23T09:48:29.642Z,43.16
2022-10-23T09:50:59.608Z,42.71
2022-10-23T09:53:33.793Z,42.56
2022-10-23T09:56:04.441Z,42.66
2022-10-23T09:58:36.811Z,42.85
2022-10-23T10:01:06.399Z,42.25
2022-10-23T10:03:34.595Z,42.28
2022-10-23T10:06:04.175Z,42.52
2022-10-23T10:08:44.270Z,42.49
2022-10-23T10:11:19.347Z,42.74
2022-10-23T10:14:13.205Z,42.32
2022-10-23T10:16:48.211Z,41.96
2022-10-23T10:19:37.604Z,42.18
2022-10-23T10:22:19.124Z,42.14
2022-10-23T10:24:53.964Z,42.20
2022-10-23T10:27:36.446Z,41.81
2022-10-23T10:30:14.643Z,41.83
2022-10-23T10:32:51.675Z,41.70
2022-10-23T10:35:37.284Z,41.92
2022-10-23T10:38:22.832Z,41.83
2022-10-23T10:41:08.037Z,41.87
2022-10-23T10:43:45.476Z,41.79
2022-10-23T10:46:21.653Z,41.40
2022-10-23T10:48:57.062Z,41.45
2022-10-23T10:51:31.932Z,41.30
2022-10-23T10:54:12.869Z,41.42
2022-10-23T10:56:43.757Z,41.78
2022-10-23T10:59:18.412Z,41.29
2022-10-23T11:01:58.312Z,41.51
2022-10-23T11:04:34.032Z,41.47
2022-10-23T11:07:08.335Z,41.07
2022-10-23T11:09:36.570Z,40.74
2022-10-23T11:12:05.051Z,40.68
2022-10-23T11:14:35.030Z,41.05
2022-10-23T11:17:12.031Z,41.28
2022-10-23T11:19:46.370Z,40.88
2022-10-23T11:22:23.893Z,40.43
2022-10-23T11:25:20.079Z,40.18
2022-10-23T11:28:07.213Z,39.85
2022-10-23T11:30:49.643Z,40.18
2022-10-23T11:34:06.434Z,39.67
2022-10-23T11:36:47.103Z,40.06
2022-10-23T11:39:27.350Z,39.40
2022-10-23T11:41:58.188Z,40.25
2022-10-23T11:44:40.830Z,39.52
2022-10-23T11:47:32.031Z,39.71
2022-10-23T11:50:28.831Z,39.28
2022-10-23T11:53:20.381Z,39.17
2022-10-23T11:56:00.183Z,39.59
2022-10-23T11:58:33.368Z,39.40
2022-10-23T12:01:07.137Z,39.78
2022-10-23T12:03:49.742Z,39.00
2022-10-23T12:06:26.018Z,38.73
2022-10-23T12:08:57.560Z,39.16
2022-10-23T12:11:40.667Z,39.39
2022-10-23T12:14:26.832Z,39.24
2022-10-23T12:16:55.279Z,40.05
2022-10-23T12:19:25.868Z,39.53
2022-10-23T12:21:58.641Z,39.47
2022-10-23T12:24:59.720Z,39.05
2022-10-23T12:27:35.044Z,39.16
2022-10-23T12:30:23.070Z,39.58
2022-10-23T12:33:27.903Z,39.26
2022-10-23T12:36:12.598Z,39.99
2022-10-23T12:38:47.375Z,39.47
2022-10-23T12:41:18.843Z,39.71
2022-10-23T12:43:53.128Z,39.24
2022-10-23T12:46:41.731Z,39.76
2022-10-23T12:49:16.530Z,39.87
2022-10-23T12:51:44.884Z,39.76
2022-10-23T12:54:19.382Z,40.17
2022-10-23T12:56:47.943Z,40.28
2022-10-23T12:59:18.927Z,39.85
2022-10-23T13:01:52.443Z,39.78
2022-10-23T13:04:28.285Z,39.77
2022-10-23T13:06:57.869Z,39.71
2022-10-23T13:09:31.399Z,39.81
2022-10-23T13:12:00.795Z,39.80
2022-10-23T13:14:38.239Z,40.18
2022-10-23T13:17:12.171Z,40.28
2022-10-23T13:19:40.453Z,40.51
2022-10-23T13:22:21.212Z,40.07
2022-10-23T13:24:50.804Z,40.03
2022-10-23T13:27:33.345Z,40.43
2022-10-23T13:30:03.194Z,40.38
2022-10-23T13:32:33.149Z,40.71
2022-10-23T13:35:21.041Z,40.68
2022-10-23T13:37:51.021Z,40.62
2022-10-23T13:40:25.135Z,40.17
2022-10-23T13:42:54.934Z,40.78
2022-10-23T13:45:25.472Z,40.42
2022-10-23T13:47:54.060Z,39.81
2022-10-23T13:50:22.131Z,39.84
2022-10-23T13:52:50.206Z,39.92
2022-10-23T13:55:24.361Z,40.09
2022-10-23T13:57:52.465Z,40.40
2022-10-23T14:00:20.967Z,40.48
2022-10-23T14:02:49.178Z,40.70
2022-10-23T14:05:17.439Z,41.11
2022-10-23T14:07:45.751Z,41.24
2022-10-23T14:10:14.036Z,41.29
2022-10-23T14:12:44.522Z,41.34
2022-10-23T14:15:13.553Z,41.31
2022-10-23T14:17:41.777Z,40.91
2022-10-23T14:20:11.304Z,40.49
2022-10-23T14:22:39.465Z,41.15
2022-10-23T14:25:07.952Z,41.25
2022-10-23T14:27:36.197Z,41.68
2022-10-23T14:30:06.845Z,42.60
2022-10-23T14:32:35.079Z,42.56
2022-10-23T14:35:04.276Z,42.38
2022-10-23T14:37:32.619Z,42.05
2022-10-23T14:40:01.715Z,42.79
2022-10-23T14:42:34.205Z,42.87
2022-10-23T14:45:02.976Z,43.17
2022-10-23T14:47:33.027Z,43.46
2022-10-23T14:50:01.165Z,44.59
2022-10-23T14:52:29.455Z,45.47
2022-10-23T14:54:57.518Z,45.14
2022-10-23T14:57:25.863Z,45.04
2022-10-23T14:59:54.029Z,45.25
2022-10-23T15:02:22.186Z,45.57
2022-10-23T15:04:51.796Z,45.17
2022-10-23T15:07:19.889Z,45.33
2022-10-23T15:09:48.111Z,45.33
2022-10-23T15:12:16.332Z,45.16
2022-10-23T15:14:44.598Z,45.31
2022-10-23T15:17:15.794Z,46.70
2022-10-23T15:19:44.081Z,47.06
2022-10-23T15:22:13.579Z,53.44
2022-10-23T15:24:41.735Z,58.19
2022-10-23T15:29:43.211Z,67.09
2022-10-23T15:32:12.148Z,67.67
2022-10-23T15:34:42.826Z,69.11
2022-10-23T15:37:11.695Z,70.60
2022-10-23T15:39:43.033Z,70.04
2022-10-23T15:42:11.610Z,69.55
2022-10-23T15:44:41.793Z,69.18
2022-10-23T15:47:09.896Z,69.01
2022-10-23T15:49:38.203Z,70.47
2022-10-23T15:54:43.281Z,70.33
2022-10-23T15:57:12.003Z,71.51
2022-10-23T15:59:40.132Z,71.94
2022-10-23T16:02:09.070Z,71.91
2022-10-23T16:04:37.271Z,73.17
2022-10-23T16:07:05.399Z,73.23
2022-10-23T16:09:33.500Z,74.21
2022-10-23T16:12:02.988Z,73.87
2022-10-23T16:14:31.670Z,73.90
2022-10-23T16:16:59.822Z,74.07
2022-10-23T16:19:28.001Z,74.39
2022-10-23T16:21:56.296Z,74.39
2022-10-23T16:24:24.574Z,74.36
2022-10-23T16:26:53.483Z,75.40
2022-10-23T16:29:23.806Z,75.68
2022-10-23T16:31:52.142Z,75.58
2022-10-23T16:34:20.479Z,75.32
2022-10-23T16:36:48.952Z,76.09
2022-10-23T16:39:19.740Z,76.04
2022-10-23T16:41:48.038Z,76.05
2022-10-23T16:44:16.173Z,76.51
2022-10-23T16:46:45.654Z,76.41
2022-10-23T16:49:14.582Z,76.64
2022-10-23T16:51:42.678Z,76.63
2022-10-23T16:54:11.086Z,76.55
2022-10-23T16:56:39.218Z,76.31
2022-10-23T16:59:07.592Z,76.11
2022-10-23T17:01:35.839Z,76.17
2022-10-23T17:04:07.519Z,76.04
2022-10-23T17:06:37.282Z,76.09
2022-10-23T17:09:06.875Z,76.33
2022-10-23T17:11:37.195Z,76.22
2022-10-23T17:14:07.742Z,75.61
2022-10-23T17:16:37.959Z,75.26
2022-10-23T17:19:20.898Z,75.49
2022-10-23T17:21:56.048Z,75.45
2022-10-23T17:24:25.001Z,75.18
2022-10-23T17:26:54.185Z,74.85
2022-10-23T17:29:22.687Z,74.77
2022-10-23T17:31:52.457Z,74.61
2022-10-23T17:34:24.094Z,74.85
2022-10-23T17:36:54.303Z,75.39
2022-10-23T17:39:25.027Z,76.02
2022-10-23T17:41:53.585Z,76.05
2022-10-23T17:44:21.875Z,76.34
2022-10-23T17:46:53.576Z,76.30
2022-10-23T17:49:23.887Z,76.54
2022-10-23T17:51:53.971Z,76.78
2022-10-23T17:54:22.278Z,77.61
2022-10-23T17:56:50.389Z,77.16
2022-10-23T17:59:20.071Z,76.19
2022-10-23T18:01:50.248Z,75.55
2022-10-23T18:04:20.420Z,75.35
2022-10-23T18:06:52.539Z,75.46
2022-10-23T18:09:21.562Z,75.93
2022-10-23T18:11:50.615Z,76.54
2022-10-23T18:14:20.126Z,76.72
2022-10-23T18:16:48.651Z,76.69
2022-10-23T18:19:18.779Z,76.79
2022-10-23T18:21:47.451Z,75.86
2022-10-23T18:24:17.375Z,75.51
2022-10-23T18:26:47.952Z,75.56
2022-10-23T18:29:17.611Z,75.49
2022-10-23T18:31:48.309Z,75.99
2022-10-23T18:34:19.234Z,76.19
2022-10-23T18:36:47.502Z,75.86
2022-10-23T18:39:22.309Z,75.65
2022-10-23T18:41:53.357Z,75.75
2022-10-23T18:44:22.802Z,76.21
2022-10-23T18:46:51.734Z,76.79
2022-10-23T18:49:21.421Z,76.44
2022-10-23T18:51:49.941Z,76.32
2022-10-23T18:54:22.598Z,76.30
2022-10-23T18:56:51.232Z,76.19
2022-10-23T18:59:22.934Z,75.55
2022-10-23T19:01:51.600Z,75.72
2022-10-23T19:04:20.406Z,75.81
2022-10-23T19:06:50.081Z,76.49
2022-10-23T19:09:20.471Z,77.42
2022-10-23T19:11:48.919Z,77.88
2022-10-23T19:14:17.115Z,77.58
2022-10-23T19:16:52.709Z,76.96
2022-10-23T19:19:24.509Z,77.74
2022-10-23T19:21:55.846Z,78.38
2022-10-23T19:24:30.087Z,79.02
2022-10-23T19:27:01.982Z,78.37
2022-10-23T19:29:31.505Z,78.54
2022-10-23T19:32:00.326Z,79.11
2022-10-23T19:34:28.999Z,78.53
2022-10-23T19:36:57.433Z,78.86
2022-10-23T19:39:27.224Z,79.01
2022-10-23T19:41:55.652Z,78.52
2022-10-23T19:44:24.883Z,77.85
2022-10-23T19:46:52.977Z,78.24
2022-10-23T19:49:23.887Z,78.97
2022-10-23T19:51:52.001Z,78.55
2022-10-23T19:54:20.656Z,78.50
2022-10-23T19:56:51.061Z,78.63
2022-10-23T19:59:19.392Z,79.26
2022-10-23T20:01:49.017Z,79.47
2022-10-23T20:04:18.134Z,79.37
2022-10-23T20:06:46.342Z,80.29
2022-10-23T20:09:14.713Z,81.14
2022-10-23T20:11:43.607Z,81.20
2022-10-23T20:14:14.060Z,81.63
2022-10-23T20:16:44.882Z,81.44
2022-10-23T20:19:15.339Z,81.82
2022-10-23T20:21:47.007Z,82.44
2022-10-23T20:24:16.782Z,83.23
2022-10-23T20:26:47.081Z,83.42
2022-10-23T20:29:17.234Z,83.56
2022-10-23T20:31:45.442Z,83.36
2022-10-23T20:34:14.030Z,83.63
2022-10-23T20:36:46.549Z,83.88
2022-10-23T20:39:17.398Z,84.28
2022-10-23T20:41:45.751Z,84.79
2022-10-23T20:44:18.664Z,85.00
2022-10-23T20:46:46.991Z,85.05
2022-10-23T20:49:15.671Z,85.33
2022-10-23T20:51:43.965Z,85.75
2022-10-23T20:54:13.139Z,87.04
2022-10-23T20:56:41.431Z,87.07
2022-10-23T20:59:13.044Z,86.98
2022-10-23T21:01:44.189Z,87.47
2022-10-23T21:04:14.782Z,88.35
2022-10-23T21:06:57.760Z,88.88
2022-10-23T21:09:31.750Z,87.94
2022-10-23T21:11:59.804Z,86.70
2022-10-23T21:14:28.877Z,86.44
2022-10-23T21:16:58.498Z,86.70
2022-10-23T21:19:26.672Z,87.01
2022-10-23T21:21:55.562Z,87.05
2022-10-23T21:24:24.159Z,86.74
2022-10-23T21:26:52.350Z,85.78
2022-10-23T21:29:20.940Z,85.52
2022-10-23T21:31:53.728Z,85.68
2022-10-23T21:34:23.861Z,84.92
2022-10-23T21:37:13.015Z,84.12
2022-10-23T21:39:40.693Z,79.17
2022-10-23T21:42:08.863Z,78.76
2022-10-23T21:44:37.391Z,78.14
2022-10-23T21:47:05.868Z,78.22
2022-10-23T21:49:35.611Z,78.32
2022-10-23T21:52:03.710Z,79.76
2022-10-23T21:54:35.103Z,80.31
2022-10-23T21:57:04.519Z,79.19
2022-10-23T21:59:35.591Z,77.04
2022-10-23T22:02:04.432Z,76.05
2022-10-23T22:04:32.913Z,76.96
2022-10-23T22:07:03.170Z,77.86
2022-10-23T22:09:31.796Z,77.19
2022-10-23T22:12:01.246Z,75.89
2022-10-23T22:14:29.622Z,75.92
2022-10-23T22:16:57.742Z,76.40
2022-10-23T22:19:25.898Z,75.82
2022-10-23T22:21:54.124Z,74.66
2022-10-23T22:24:23.693Z,74.53
2022-10-23T22:26:54.462Z,74.88
2022-10-23T22:29:24.464Z,74.77
2022-10-23T22:31:53.136Z,74.88
2022-10-23T22:37:12.818Z,77.08
2022-10-23T22:39:42.593Z,77.88
2022-10-23T22:42:11.042Z,78.21
2022-10-23T22:44:39.361Z,78.73
2022-10-23T22:47:07.562Z,78.89
2022-10-23T22:49:35.850Z,79.69
2022-10-23T22:52:04.056Z,79.85
2022-10-23T22:54:32.222Z,79.30
2022-10-23T22:57:01.792Z,78.49
2022-10-23T22:59:29.922Z,78.28
2022-10-23T23:01:58.016Z,78.19
2022-10-23T23:04:42.539Z,78.70
2022-10-23T23:07:12.614Z,79.65
2022-10-23T23:09:43.106Z,80.46
2022-10-23T23:12:14.331Z,81.42
2022-10-23T23:14:43.371Z,82.13
2022-10-23T23:17:11.871Z,84.12
2022-10-23T23:19:40.434Z,84.24
2022-10-23T23:22:08.719Z,85.10
2022-10-23T23:24:36.957Z,84.60
2022-10-23T23:27:05.237Z,84.05
2022-10-23T23:29:35.307Z,83.22
2022-10-23T23:32:06.251Z,82.65
2022-10-23T23:34:34.500Z,81.79
2022-10-23T23:37:02.569Z,80.69
2022-10-23T23:39:30.897Z,80.48
2022-10-23T23:41:58.979Z,79.75
2022-10-23T23:44:27.408Z,79.01
2022-10-23T23:46:57.325Z,77.98
2022-10-23T23:49:25.655Z,76.91
2022-10-23T23:51:53.779Z,76.35
2022-10-23T23:54:22.295Z,76.93
2022-10-23T23:56:50.376Z,78.37
2022-10-23T23:59:18.585Z,79.19
